Hamlin, Maine
Current Conditions -  °F | °C
As of 1:54 AM on Saturday 29 Nov 2014 (Local Time) from KCAR Reporting Station
Few Clouds Few Clouds  
Wind Chill: -1°   Ceiling: Unl
Heat Index: 11°   Visibility: 10mi
Dew Point:   Wind: 8mph
Humidity: 81%   Direction: 310°NW
Pressure: 30.08"   Gusts: NA
Location:  47.123°N, 67.9773°W
Report Text: KCAR 290654Z AUTO 31007KT 10SM FEW041 M12/M14 A3008 RMK AO2 SLP201 T11171144
Loading
Personal Weather Stations






























Interactive Weather Map New forecast layout! Learn more

10-Day Weather Forecast

Advertisements
Track Severe Weather on mobile